Terminal Aerodrome Forecast
Issued by NWS Albany, NY

Home | Current Version | Previous Version | Text Only | Print | Product List | Glossary On
Versions: 1 2 3 4 5 6 7 8 9 10 11 12 13 14 15 16 17 18 19 20 21 22 23
000
FTUS41 KALY 240200 AAC
TAFPOU
TAF AMD
KPOU 240200Z 2402/2424 26010KT P6SM SKC
     FM240300 25009KT P6SM FEW035
     FM241200 29010KT P6SM SCT030
     FM241600 30011KT P6SM FEW250=

USA.gov is the U.S. government's official web portal to all federal, state and local government web resources and services.